createdAt,value
2022-11-21T00:00:53.881Z,3.05
2022-11-21T00:03:21.385Z,3.55
2022-11-21T00:05:49.214Z,4.15
2022-11-21T00:08:20.597Z,3.03
2022-11-21T00:10:48.311Z,3.70
2022-11-21T00:13:18.938Z,3.33
2022-11-21T00:15:47.153Z,3.55
2022-11-21T00:18:14.664Z,2.83
2022-11-21T00:20:42.432Z,2.88
2022-11-21T00:23:10.540Z,2.28
2022-11-21T00:25:38.653Z,2.80
2022-11-21T00:28:06.050Z,2.40
2022-11-21T00:30:33.244Z,2.60
2022-11-21T00:33:00.395Z,3.33
2022-11-21T00:35:27.994Z,2.47
2022-11-21T00:37:55.022Z,1.90
2022-11-21T00:40:22.036Z,1.88
2022-11-21T00:42:49.014Z,2.28
2022-11-21T00:45:21.170Z,2.20
2022-11-21T00:47:50.934Z,1.80
2022-11-21T00:50:17.935Z,2.60
2022-11-21T00:52:44.904Z,1.40
2022-11-21T00:55:11.860Z,1.98
2022-11-21T00:57:39.017Z,1.90
2022-11-21T01:00:06.684Z,2.22
2022-11-21T01:02:33.740Z,1.33
2022-11-21T01:05:00.740Z,1.65
2022-11-21T01:07:27.808Z,1.33
2022-11-21T01:09:54.888Z,1.10
2022-11-21T01:12:21.892Z,0.98
2022-11-21T01:14:49.052Z,1.10
2022-11-21T01:17:16.304Z,1.10
2022-11-21T01:19:44.783Z,1.45
2022-11-21T01:22:11.731Z,2.72
2022-11-21T01:24:38.708Z,2.80
2022-11-21T01:27:06.734Z,3.20
2022-11-21T01:29:33.709Z,1.80
2022-11-21T01:32:00.679Z,1.67
2022-11-21T01:34:27.935Z,1.58
2022-11-21T01:36:55.200Z,1.60
2022-11-21T01:39:22.221Z,1.33
2022-11-21T01:41:49.229Z,2.05
2022-11-21T01:44:25.211Z,1.98
2022-11-21T01:46:53.159Z,1.77
2022-11-21T01:49:24.674Z,2.60
2022-11-21T01:52:10.363Z,2.22
2022-11-21T01:54:39.978Z,1.77
2022-11-21T01:57:13.559Z,2.17
2022-11-21T02:00:00.476Z,3.05
2022-11-21T02:02:36.636Z,2.00
2022-11-21T02:05:08.575Z,2.42
2022-11-21T02:07:40.942Z,2.50
2022-11-21T02:10:09.385Z,2.30
2022-11-21T02:12:53.343Z,1.50
2022-11-21T02:15:26.473Z,2.15
2022-11-21T02:17:54.170Z,1.85
2022-11-21T02:20:23.730Z,1.35
2022-11-21T02:23:14.150Z,1.83
2022-11-21T02:25:42.908Z,1.98
2022-11-21T02:28:13.957Z,2.25
2022-11-21T02:30:42.508Z,1.73
2022-11-21T02:33:10.999Z,1.48
2022-11-21T02:35:38.303Z,2.30
2022-11-21T02:38:06.839Z,2.33
2022-11-21T02:40:41.703Z,2.35
2022-11-21T02:43:21.896Z,2.20
2022-11-21T02:45:48.958Z,2.30
2022-11-21T02:48:16.274Z,3.00
2022-11-21T02:54:50.066Z,3.10
2022-11-21T02:57:17.052Z,3.10
2022-11-21T02:59:44.168Z,3.92
2022-11-21T03:02:11.116Z,3.63
2022-11-21T03:04:38.115Z,5.13
2022-11-21T03:07:05.156Z,4.63
2022-11-21T03:09:32.157Z,4.10
2022-11-21T03:11:59.143Z,4.60
2022-11-21T03:14:26.490Z,5.20
2022-11-21T03:16:53.585Z,5.28
2022-11-21T03:19:20.682Z,4.65
2022-11-21T03:21:47.640Z,5.07
2022-11-21T03:24:14.615Z,5.03
2022-11-21T03:26:41.595Z,4.93
2022-11-21T03:29:08.603Z,5.97
2022-11-21T03:31:35.721Z,6.20
2022-11-21T03:34:03.077Z,6.53
2022-11-21T03:36:30.121Z,5.78
2022-11-21T03:38:57.900Z,5.65
2022-11-21T03:41:32.243Z,6.95
2022-11-21T03:44:05.022Z,7.00
2022-11-21T03:46:39.820Z,5.50
2022-11-21T03:49:08.088Z,6.40
2022-11-21T03:51:35.522Z,5.88
2022-11-21T03:54:03.467Z,5.20
2022-11-21T03:56:30.932Z,5.82
2022-11-21T03:58:58.407Z,5.38
2022-11-21T04:01:25.947Z,5.75
2022-11-21T04:03:53.735Z,5.30
2022-11-21T04:06:22.716Z,4.93
2022-11-21T04:08:50.292Z,5.03
2022-11-21T04:11:17.891Z,5.07
2022-11-21T04:13:44.911Z,4.85
2022-11-21T04:16:11.927Z,5.20
2022-11-21T04:18:38.951Z,5.20
2022-11-21T04:21:08.325Z,4.85
2022-11-21T04:23:35.371Z,4.20
2022-11-21T04:26:02.828Z,5.03
2022-11-21T04:28:29.852Z,5.15
2022-11-21T04:31:05.763Z,4.80
2022-11-21T04:33:35.873Z,4.97
2022-11-21T04:36:02.884Z,5.50
2022-11-21T04:38:30.056Z,5.95
2022-11-21T04:40:57.079Z,5.63
2022-11-21T04:43:24.137Z,6.30
2022-11-21T04:45:51.125Z,6.05
2022-11-21T04:48:18.125Z,7.47
2022-11-21T04:50:45.903Z,8.02
2022-11-21T04:53:12.949Z,8.05
2022-11-21T04:55:39.962Z,8.13
2022-11-21T04:58:06.961Z,9.18
2022-11-21T05:00:34.669Z,8.65
2022-11-21T05:03:03.767Z,8.45
2022-11-21T05:05:31.238Z,8.63
2022-11-21T05:07:58.537Z,9.65
2022-11-21T05:10:25.611Z,10.10
2022-11-21T05:13:18.352Z,9.90
2022-11-21T05:15:45.917Z,10.05
2022-11-21T05:18:13.131Z,10.43
2022-11-21T05:20:40.111Z,9.85
2022-11-21T05:23:07.088Z,11.15
2022-11-21T05:25:34.076Z,10.02
2022-11-21T05:28:01.035Z,10.38
2022-11-21T05:30:28.071Z,11.30
2022-11-21T05:32:55.102Z,9.77
2022-11-21T05:35:22.075Z,11.65
2022-11-21T05:37:49.125Z,8.98
2022-11-21T05:40:16.392Z,11.10
2022-11-21T05:43:02.047Z,10.35
2022-11-21T05:45:29.166Z,10.23
2022-11-21T05:47:56.143Z,10.27
2022-11-21T05:50:23.181Z,10.52
2022-11-21T05:52:50.172Z,10.68
2022-11-21T05:55:17.213Z,11.13
2022-11-21T05:57:44.203Z,10.68
2022-11-21T06:00:11.715Z,11.48
2022-11-21T06:02:57.590Z,11.30
2022-11-21T06:05:24.612Z,10.02
2022-11-21T06:07:51.572Z,10.93
2022-11-21T06:10:18.756Z,11.73
2022-11-21T06:12:45.714Z,10.43
2022-11-21T06:15:12.769Z,10.88
2022-11-21T06:17:39.737Z,11.70
2022-11-21T06:20:07.682Z,10.85
2022-11-21T06:22:34.724Z,13.38
2022-11-21T06:25:01.751Z,11.25
2022-11-21T06:27:29.610Z,12.65
2022-11-21T06:29:56.604Z,13.02
2022-11-21T06:32:23.670Z,12.18
2022-11-21T06:34:50.713Z,12.90
2022-11-21T06:37:17.766Z,12.10
2022-11-21T06:39:44.737Z,11.20
2022-11-21T06:42:11.717Z,9.95
2022-11-21T06:44:38.718Z,10.18
2022-11-21T06:47:05.794Z,10.07
2022-11-21T06:49:32.757Z,10.88
2022-11-21T06:51:59.808Z,10.27
2022-11-21T06:54:26.788Z,9.75
2022-11-21T06:56:55.456Z,9.43
2022-11-21T06:59:22.421Z,10.15
2022-11-21T07:01:49.843Z,10.50
2022-11-21T07:04:16.891Z,9.75
2022-11-21T07:06:43.879Z,10.93
2022-11-21T07:09:32.317Z,10.18
2022-11-21T07:12:17.900Z,9.93
2022-11-21T07:14:44.877Z,11.20
2022-11-21T07:17:12.558Z,12.30
2022-11-21T07:19:41.159Z,11.23
2022-11-21T07:22:08.528Z,11.60
2022-11-21T07:24:35.516Z,11.95
2022-11-21T07:27:02.660Z,11.85
2022-11-21T07:29:30.169Z,11.82
2022-11-21T07:31:57.455Z,10.80
2022-11-21T07:34:24.467Z,10.80
2022-11-21T07:36:51.436Z,10.25
2022-11-21T07:39:19.290Z,12.02
2022-11-21T07:41:46.336Z,12.02
2022-11-21T07:44:13.439Z,11.70
2022-11-21T07:46:40.408Z,12.90
2022-11-21T07:49:07.546Z,12.20
2022-11-21T07:51:34.628Z,12.43
2022-11-21T07:54:01.580Z,13.13
2022-11-21T07:56:28.684Z,11.10
2022-11-21T07:58:55.644Z,13.77
2022-11-21T08:01:22.701Z,12.45
2022-11-21T08:03:49.751Z,13.60
2022-11-21T08:06:16.732Z,12.25
2022-11-21T08:08:44.574Z,13.18
2022-11-21T08:11:11.617Z,12.18
2022-11-21T08:13:38.602Z,11.10
2022-11-21T08:16:05.883Z,10.52
2022-11-21T08:18:32.942Z,10.90
2022-11-21T08:21:04.163Z,10.07
2022-11-21T08:23:31.991Z,10.90
2022-11-21T08:25:59.285Z,11.07
2022-11-21T08:28:26.253Z,9.77
2022-11-21T08:30:53.635Z,10.25
2022-11-21T08:33:20.681Z,10.20
2022-11-21T08:35:47.670Z,10.23
2022-11-21T08:38:14.698Z,10.35
2022-11-21T08:40:41.717Z,10.90
2022-11-21T08:43:10.759Z,9.90
2022-11-21T08:45:39.560Z,10.13
2022-11-21T08:48:11.449Z,10.55
2022-11-21T08:50:38.837Z,12.15
2022-11-21T08:53:05.907Z,11.75
2022-11-21T08:55:32.950Z,11.07
2022-11-21T08:58:00.030Z,11.80
2022-11-21T09:00:27.054Z,11.95
2022-11-21T09:02:54.125Z,10.80
2022-11-21T09:05:21.293Z,10.52
2022-11-21T09:07:48.702Z,11.20
2022-11-21T09:10:15.875Z,12.32
2022-11-21T09:12:43.329Z,11.38
2022-11-21T09:15:29.635Z,10.70
2022-11-21T09:18:04.102Z,11.07
2022-11-21T09:20:32.186Z,11.60
2022-11-21T09:23:04.618Z,11.73
2022-11-21T09:25:31.634Z,10.27
2022-11-21T09:28:06.090Z,9.60
2022-11-21T09:30:33.449Z,9.25
2022-11-21T09:33:05.397Z,9.15
2022-11-21T09:35:32.749Z,6.68
2022-11-21T09:38:00.475Z,6.88
2022-11-21T09:40:30.275Z,7.65
2022-11-21T09:43:18.730Z,6.85
2022-11-21T09:45:51.622Z,5.82
2022-11-21T09:48:36.197Z,6.18
2022-11-21T09:51:11.734Z,5.70
2022-11-21T09:53:59.773Z,6.38
2022-11-21T09:56:31.184Z,5.32
2022-11-21T09:59:29.135Z,6.18
2022-11-21T10:01:56.770Z,5.43
2022-11-21T10:04:25.875Z,5.18
2022-11-21T10:07:03.779Z,5.25
2022-11-21T10:09:56.259Z,4.75
2022-11-21T10:12:38.206Z,5.18
2022-11-21T10:15:23.631Z,5.70
2022-11-21T10:18:08.534Z,3.00
2022-11-21T10:20:44.504Z,2.70
2022-11-21T10:23:29.981Z,2.97
2022-11-21T10:26:16.446Z,2.33
2022-11-21T10:29:10.875Z,2.15
2022-11-21T10:31:41.151Z,1.23
2022-11-21T10:34:17.803Z,1.67
2022-11-21T10:36:50.549Z,1.23
2022-11-21T10:39:34.369Z,1.67
2022-11-21T10:42:14.182Z,1.65
2022-11-21T10:45:00.181Z,1.70
2022-11-21T10:47:37.465Z,1.98
2022-11-21T10:50:10.369Z,1.70
2022-11-21T10:52:54.520Z,1.98
2022-11-21T10:55:21.536Z,1.67
2022-11-21T10:57:52.550Z,1.75
2022-11-21T11:00:25.199Z,1.08
2022-11-21T11:05:24.876Z,1.65
2022-11-21T11:08:11.155Z,1.50
2022-11-21T11:10:47.116Z,1.80
2022-11-21T11:13:49.928Z,1.63
2022-11-21T11:16:21.284Z,1.73
2022-11-21T11:19:10.522Z,2.35
2022-11-21T11:21:46.799Z,2.00
2022-11-21T11:24:13.763Z,2.22
2022-11-21T11:26:46.498Z,1.60
2022-11-21T11:29:25.042Z,1.95
2022-11-21T11:32:24.617Z,3.25
2022-11-21T11:35:09.476Z,5.00
2022-11-21T11:37:42.052Z,1.77
2022-11-21T11:43:32.406Z,1.70
2022-11-21T11:46:32.628Z,2.65
2022-11-21T11:49:19.614Z,1.73
2022-11-21T11:51:57.248Z,1.92
2022-11-21T11:54:32.503Z,2.20
2022-11-21T11:56:59.734Z,1.70
2022-11-21T11:59:36.425Z,1.92
2022-11-21T12:02:17.506Z,1.95
2022-11-21T12:04:50.022Z,2.10
2022-11-21T12:10:21.408Z,2.88
2022-11-21T12:12:55.994Z,1.60
2022-11-21T12:15:51.260Z,2.65
2022-11-21T12:18:18.173Z,2.20
2022-11-21T12:20:57.152Z,2.25
2022-11-21T12:23:45.345Z,1.50
2022-11-21T12:26:33.991Z,0.95
2022-11-21T12:29:22.705Z,1.23
2022-11-21T12:32:04.968Z,1.65
2022-11-21T12:34:31.888Z,3.03
2022-11-21T12:37:32.854Z,1.10
2022-11-21T12:40:26.045Z,1.70
2022-11-21T12:43:17.180Z,1.73
2022-11-21T12:46:14.475Z,1.35
2022-11-21T12:49:26.875Z,2.03
2022-11-21T12:52:28.988Z,1.47
2022-11-21T12:55:20.468Z,1.27
2022-11-21T12:57:50.081Z,1.40
2022-11-21T13:00:27.621Z,1.52
2022-11-21T13:03:25.260Z,1.35
2022-11-21T13:05:55.648Z,1.13
2022-11-21T13:08:29.771Z,1.75
2022-11-21T13:11:21.435Z,1.50
2022-11-21T13:13:56.721Z,1.55
2022-11-21T13:16:39.761Z,1.52
2022-11-21T13:19:28.995Z,1.40
2022-11-21T13:21:56.438Z,1.50
2022-11-21T13:24:45.338Z,2.28
2022-11-21T13:27:40.243Z,1.38
2022-11-21T13:30:07.212Z,1.33
2022-11-21T13:33:06.448Z,1.55
2022-11-21T13:35:59.640Z,1.23
2022-11-21T13:38:26.632Z,1.58
2022-11-21T13:41:12.404Z,1.30
2022-11-21T13:43:39.431Z,1.60
2022-11-21T13:46:06.455Z,3.00
2022-11-21T13:49:01.375Z,1.20
2022-11-21T13:51:43.580Z,1.55
2022-11-21T13:54:44.281Z,2.25
2022-11-21T13:57:55.122Z,1.20
2022-11-21T14:01:09.266Z,1.25
2022-11-21T14:04:07.771Z,0.90
2022-11-21T14:06:44.685Z,0.85
2022-11-21T14:09:14.787Z,0.82
2022-11-21T14:11:58.001Z,1.35
2022-11-21T14:14:29.905Z,0.77
2022-11-21T14:17:24.106Z,0.95
2022-11-21T14:19:54.618Z,0.85
2022-11-21T14:22:33.422Z,0.70
2022-11-21T14:25:08.148Z,1.27
2022-11-21T14:27:44.917Z,1.48
2022-11-21T14:30:34.377Z,1.20
2022-11-21T14:33:23.110Z,1.10
2022-11-21T14:35:57.853Z,0.77
2022-11-21T14:38:25.890Z,1.00
2022-11-21T14:41:25.031Z,1.45
2022-11-21T14:43:58.078Z,1.35
2022-11-21T14:46:35.415Z,1.23
2022-11-21T14:49:17.458Z,1.00
2022-11-21T14:51:48.243Z,1.65
2022-11-21T14:54:40.009Z,1.48
2022-11-21T14:57:08.229Z,1.15
2022-11-21T14:59:43.277Z,1.42
2022-11-21T15:02:17.783Z,2.78
2022-11-21T15:04:48.007Z,1.95
2022-11-21T15:07:19.783Z,2.35
2022-11-21T15:12:47.936Z,1.50
2022-11-21T15:15:26.398Z,2.22
2022-11-21T15:18:26.019Z,1.50
2022-11-21T15:20:52.252Z,1.55
2022-11-21T15:23:33.985Z,2.08
2022-11-21T15:26:02.013Z,2.70
2022-11-21T15:28:30.455Z,3.05
2022-11-21T15:31:17.872Z,2.25
2022-11-21T15:34:34.377Z,3.22
2022-11-21T15:37:14.316Z,2.25
2022-11-21T15:39:46.430Z,2.42
2022-11-21T15:42:31.608Z,2.03
2022-11-21T15:45:02.949Z,2.33
2022-11-21T15:47:29.985Z,2.22
2022-11-21T15:49:57.034Z,1.75
2022-11-21T15:52:24.192Z,1.48
2022-11-21T15:54:51.308Z,2.20
2022-11-21T15:59:50.729Z,3.17
2022-11-21T16:02:18.089Z,2.63
2022-11-21T16:04:45.468Z,2.58
2022-11-21T16:07:12.515Z,2.83
2022-11-21T16:09:40.789Z,2.88
2022-11-21T16:12:09.373Z,2.53
2022-11-21T16:14:36.368Z,2.80
2022-11-21T16:17:03.506Z,3.35
2022-11-21T16:19:31.056Z,2.78
2022-11-21T16:21:58.200Z,3.50
2022-11-21T16:24:25.198Z,3.30
2022-11-21T16:26:54.518Z,2.67
2022-11-21T16:29:21.680Z,3.65
2022-11-21T16:31:50.261Z,3.10
2022-11-21T16:34:20.127Z,3.28
2022-11-21T16:36:47.119Z,3.28
2022-11-21T16:39:18.223Z,2.38
2022-11-21T16:41:47.239Z,2.72
2022-11-21T16:44:16.290Z,3.33
2022-11-21T16:46:47.181Z,2.97
2022-11-21T16:49:14.524Z,2.65
2022-11-21T16:51:41.564Z,3.17
2022-11-21T16:54:09.560Z,2.63
2022-11-21T16:56:37.038Z,2.58
2022-11-21T16:59:04.131Z,2.95
2022-11-21T17:01:31.280Z,3.10
2022-11-21T17:03:58.576Z,2.90
2022-11-21T17:06:29.509Z,2.35
2022-11-21T17:08:58.445Z,3.25
2022-11-21T17:11:28.988Z,2.80
2022-11-21T17:13:59.077Z,3.35
2022-11-21T17:16:26.730Z,3.67
2022-11-21T17:18:55.305Z,3.72
2022-11-21T17:21:23.617Z,3.63
2022-11-21T17:23:50.680Z,3.60
2022-11-21T17:26:20.682Z,2.63
2022-11-21T17:28:55.721Z,3.10
2022-11-21T17:31:23.243Z,2.60
2022-11-21T17:33:51.788Z,3.08
2022-11-21T17:36:20.926Z,2.90
2022-11-21T17:38:48.329Z,2.95
2022-11-21T17:41:17.839Z,2.63
2022-11-21T17:43:45.366Z,2.65
2022-11-21T17:46:14.919Z,2.30
2022-11-21T17:48:42.042Z,8.80
2022-11-21T17:51:14.336Z,3.63
2022-11-21T17:53:47.151Z,2.80
2022-11-21T17:56:19.564Z,1.67
2022-11-21T17:58:47.193Z,2.47
2022-11-21T18:01:19.003Z,2.55
2022-11-21T18:03:48.023Z,2.63
2022-11-21T18:06:17.067Z,2.60
2022-11-21T18:08:46.385Z,1.90
2022-11-21T18:11:16.210Z,2.38
2022-11-21T18:13:43.611Z,1.95
2022-11-21T18:16:16.874Z,3.17
2022-11-21T18:18:44.424Z,2.38
2022-11-21T18:21:16.514Z,2.03
2022-11-21T18:23:47.185Z,2.05
2022-11-21T18:26:26.693Z,2.00
2022-11-21T18:29:20.586Z,1.70
2022-11-21T18:31:45.951Z,2.97
2022-11-21T18:34:13.045Z,1.83
2022-11-21T18:36:40.384Z,2.25
2022-11-21T18:39:14.205Z,2.22
2022-11-21T18:41:42.761Z,2.30
2022-11-21T18:44:09.954Z,2.35
2022-11-21T18:46:38.594Z,2.47
2022-11-21T18:49:07.814Z,2.60
2022-11-21T18:51:36.194Z,1.75
2022-11-21T18:54:10.369Z,2.28
2022-11-21T18:56:38.924Z,2.90
2022-11-21T18:59:06.751Z,2.38
2022-11-21T19:01:35.896Z,2.78
2022-11-21T19:04:03.817Z,3.08
2022-11-21T19:06:31.142Z,3.25
2022-11-21T19:08:58.793Z,2.20
2022-11-21T19:11:28.459Z,2.42
2022-11-21T19:13:57.084Z,2.95
2022-11-21T19:16:26.168Z,3.15
2022-11-21T19:19:33.619Z,3.10
2022-11-21T19:21:44.827Z,2.92
2022-11-21T19:24:13.647Z,3.47
2022-11-21T19:26:41.664Z,3.22
2022-11-21T19:29:09.267Z,3.55
2022-11-21T19:31:40.968Z,2.72
2022-11-21T19:34:12.816Z,2.85
2022-11-21T19:36:40.139Z,2.55
2022-11-21T19:39:07.285Z,2.22
2022-11-21T19:41:34.348Z,2.75
2022-11-21T19:44:02.084Z,2.47
2022-11-21T19:46:32.111Z,3.15
2022-11-21T19:48:59.959Z,2.53
2022-11-21T19:51:36.359Z,2.20
2022-11-21T19:54:08.745Z,3.10
2022-11-21T19:56:36.093Z,2.33
2022-11-21T19:59:03.771Z,2.53
2022-11-21T20:01:32.318Z,2.20
2022-11-21T20:04:01.756Z,2.75
2022-11-21T20:06:41.486Z,2.38
2022-11-21T20:09:11.345Z,3.58
2022-11-21T20:11:40.305Z,2.72
2022-11-21T20:14:07.650Z,3.03
2022-11-21T20:16:44.224Z,3.03
2022-11-21T20:19:14.970Z,3.05
2022-11-21T20:21:43.176Z,2.90
2022-11-21T20:24:12.031Z,3.28
2022-11-21T20:26:39.893Z,2.72
2022-11-21T20:29:07.965Z,2.65
2022-11-21T20:31:37.072Z,2.22
2022-11-21T20:34:06.867Z,2.67
2022-11-21T20:36:36.560Z,2.70
2022-11-21T20:39:06.935Z,3.35
2022-11-21T20:41:36.289Z,2.38
2022-11-21T20:46:54.741Z,1.77
2022-11-21T20:49:22.352Z,3.08
2022-11-21T20:54:37.958Z,3.50
2022-11-21T20:57:05.898Z,3.35
2022-11-21T20:59:35.213Z,2.22
2022-11-21T21:02:02.256Z,1.83
2022-11-21T21:04:29.336Z,2.05
2022-11-21T21:06:56.323Z,2.60
2022-11-21T21:09:24.102Z,2.17
2022-11-21T21:11:52.980Z,2.15
2022-11-21T21:14:22.166Z,2.42
2022-11-21T21:16:49.739Z,2.40
2022-11-21T21:19:17.319Z,2.80
2022-11-21T21:21:44.656Z,2.47
2022-11-21T21:24:12.771Z,2.70
2022-11-21T21:26:43.529Z,2.95
2022-11-21T21:29:13.312Z,2.85
2022-11-21T21:31:45.260Z,2.03
2022-11-21T21:34:14.040Z,2.17
2022-11-21T21:36:41.001Z,2.45
2022-11-21T21:39:08.002Z,2.50
2022-11-21T21:41:35.721Z,3.03
2022-11-21T21:44:02.791Z,2.45
2022-11-21T21:46:29.771Z,3.75
2022-11-21T21:48:58.106Z,2.28
2022-11-21T21:51:29.933Z,3.38
2022-11-21T21:53:58.800Z,2.20
2022-11-21T21:56:27.748Z,2.05
2022-11-21T21:58:56.718Z,2.20
2022-11-21T22:01:31.541Z,2.15
2022-11-21T22:04:01.575Z,2.03
2022-11-21T22:06:29.696Z,2.33
2022-11-21T22:08:56.795Z,2.58
2022-11-21T22:11:26.130Z,2.60
2022-11-21T22:13:58.674Z,2.42
2022-11-21T22:18:53.093Z,2.65
2022-11-21T22:21:26.663Z,3.20
2022-11-21T22:24:25.024Z,3.03
2022-11-21T22:26:42.186Z,2.45
2022-11-21T22:29:09.230Z,2.60
2022-11-21T22:31:37.348Z,2.90
2022-11-21T22:34:04.448Z,2.63
2022-11-21T22:36:31.440Z,2.70
2022-11-21T22:38:58.439Z,2.47
2022-11-21T22:41:27.362Z,2.83
2022-11-21T22:43:56.686Z,2.38
2022-11-21T22:46:25.520Z,2.30
2022-11-21T22:48:52.629Z,1.75
2022-11-21T22:51:22.798Z,2.10
2022-11-21T22:53:50.495Z,1.60
2022-11-21T22:56:20.008Z,2.05
2022-11-21T22:58:47.925Z,2.20
2022-11-21T23:01:20.455Z,2.08
2022-11-21T23:03:48.963Z,1.88
2022-11-21T23:06:21.470Z,1.75
2022-11-21T23:11:22.605Z,1.80
2022-11-21T23:13:50.954Z,1.77
2022-11-21T23:16:18.764Z,1.30
2022-11-21T23:18:45.785Z,1.77
2022-11-21T23:21:13.982Z,1.40
2022-11-21T23:23:43.850Z,1.88
2022-11-21T23:26:11.570Z,2.22
2022-11-21T23:28:38.569Z,1.45
2022-11-21T23:31:05.636Z,1.52
2022-11-21T23:33:32.604Z,1.98
2022-11-21T23:35:59.566Z,1.52
2022-11-21T23:38:26.630Z,1.10
2022-11-21T23:40:53.727Z,1.52
2022-11-21T23:43:20.723Z,1.95
2022-11-21T23:45:51.937Z,1.52
2022-11-21T23:48:19.880Z,1.88
2022-11-21T23:50:48.076Z,1.77
2022-11-21T23:53:15.128Z,1.60
2022-11-21T23:55:43.699Z,1.42
2022-11-21T23:58:11.762Z,1.30
